sensor_id;sensor_type;location;lat;lon;timestamp;pressure;altitude;pressure_sealevel;temperature;humidity
2681;BME280;1350;42.134;24.708;2024-02-23T00:01:33;99355.09;;;7.05;100.00
2681;BME280;1350;42.134;24.708;2024-02-23T00:04:00;99350.50;;;7.10;100.00
2681;BME280;1350;42.134;24.708;2024-02-23T00:06:28;99346.47;;;7.21;100.00
2681;BME280;1350;42.134;24.708;2024-02-23T00:08:55;99348.03;;;7.27;100.00
2681;BME280;1350;42.134;24.708;2024-02-23T00:11:21;99350.16;;;6.97;100.00
2681;BME280;1350;42.134;24.708;2024-02-23T00:13:48;99348.03;;;6.85;100.00
2681;BME280;1350;42.134;24.708;2024-02-23T00:16:15;99349.69;;;6.66;100.00
2681;BME280;1350;42.134;24.708;2024-02-23T00:18:44;99339.53;;;6.57;100.00
2681;BME280;1350;42.134;24.708;2024-02-23T00:21:11;99337.75;;;6.79;100.00
2681;BME280;1350;42.134;24.708;2024-02-23T00:23:38;99342.84;;;6.62;100.00
2681;BME280;1350;42.134;24.708;2024-02-23T00:26:05;99343.09;;;6.56;100.00
2681;BME280;1350;42.134;24.708;2024-02-23T00:28:31;99339.53;;;6.35;100.00
2681;BME280;1350;42.134;24.708;2024-02-23T00:30:58;99339.28;;;6.63;100.00
2681;BME280;1350;42.134;24.708;2024-02-23T00:33:25;99342.84;;;6.62;100.00
2681;BME280;1350;42.134;24.708;2024-02-23T00:35:55;99339.47;;;6.37;100.00
2681;BME280;1350;42.134;24.708;2024-02-23T00:38:22;99328.03;;;6.38;100.00
2681;BME280;1350;42.134;24.708;2024-02-23T00:40:49;99328.03;;;6.38;100.00
2681;BME280;1350;42.134;24.708;2024-02-23T00:43:15;99324.97;;;6.48;100.00
2681;BME280;1350;42.134;24.708;2024-02-23T00:45:42;99333.81;;;6.24;100.00
2681;BME280;1350;42.134;24.708;2024-02-23T00:48:09;99331.31;;;6.21;100.00
2681;BME280;1350;42.134;24.708;2024-02-23T00:50:38;99325.69;;;6.09;100.00
2681;BME280;1350;42.134;24.708;2024-02-23T00:53:06;99326.91;;;6.22;100.00
2681;BME280;1350;42.134;24.708;2024-02-23T00:55:33;99325.16;;;6.44;100.00
2681;BME280;1350;42.134;24.708;2024-02-23T00:58:00;99317.06;;;6.27;100.00
2681;BME280;1350;42.134;24.708;2024-02-23T01:00:29;99315.34;;;6.03;100.00
2681;BME280;1350;42.134;24.708;2024-02-23T01:02:55;99315.22;;;6.07;100.00
2681;BME280;1350;42.134;24.708;2024-02-23T01:05:24;99316.25;;;6.25;100.00
2681;BME280;1350;42.134;24.708;2024-02-23T01:07:51;99316.63;;;6.16;100.00
2681;BME280;1350;42.134;24.708;2024-02-23T01:10:20;99307.66;;;6.20;100.00
2681;BME280;1350;42.134;24.708;2024-02-23T01:12:47;99306.84;;;6.19;100.00
2681;BME280;1350;42.134;24.708;2024-02-23T01:15:16;99306.59;;;6.25;100.00
2681;BME280;1350;42.134;24.708;2024-02-23T01:17:43;99312.19;;;6.39;100.00
2681;BME280;1350;42.134;24.708;2024-02-23T01:20:10;99303.47;;;6.16;100.00
2681;BME280;1350;42.134;24.708;2024-02-23T01:22:37;99300.22;;;6.31;100.00
2681;BME280;1350;42.134;24.708;2024-02-23T01:25:05;99291.63;;;6.26;100.00
2681;BME280;1350;42.134;24.708;2024-02-23T01:27:33;99294.59;;;6.40;100.00
2681;BME280;1350;42.134;24.708;2024-02-23T01:30:00;99290.38;;;6.36;100.00
2681;BME280;1350;42.134;24.708;2024-02-23T01:32:27;99289.56;;;6.34;100.00
2681;BME280;1350;42.134;24.708;2024-02-23T01:34:54;99295.13;;;6.26;100.00
2681;BME280;1350;42.134;24.708;2024-02-23T01:37:21;99294.34;;;6.24;100.00
2681;BME280;1350;42.134;24.708;2024-02-23T01:39:48;99291.50;;;6.29;100.00
2681;BME280;1350;42.134;24.708;2024-02-23T01:42:15;99297.66;;;6.29;100.00
2681;BME280;1350;42.134;24.708;2024-02-23T01:44:44;99289.38;;;6.17;100.00
2681;BME280;1350;42.134;24.708;2024-02-23T01:47:11;99288.84;;;6.09;100.00
2681;BME280;1350;42.134;24.708;2024-02-23T01:49:38;99283.78;;;6.03;100.00
2681;BME280;1350;42.134;24.708;2024-02-23T01:52:05;99286.63;;;6.20;100.00
2681;BME280;1350;42.134;24.708;2024-02-23T01:54:32;99278.06;;;6.15;100.00
2681;BME280;1350;42.134;24.708;2024-02-23T01:57:00;99280.53;;;6.19;100.00
2681;BME280;1350;42.134;24.708;2024-02-23T01:59:27;99278.41;;;6.06;100.00
2681;BME280;1350;42.134;24.708;2024-02-23T02:01:56;99277.13;;;5.94;100.00
2681;BME280;1350;42.134;24.708;2024-02-23T02:04:23;99273.91;;;5.86;100.00
2681;BME280;1350;42.134;24.708;2024-02-23T02:06:50;99272.59;;;5.75;100.00
2681;BME280;1350;42.134;24.708;2024-02-23T02:09:17;99275.59;;;5.89;100.00
2681;BME280;1350;42.134;24.708;2024-02-23T02:11:47;99272.78;;;5.70;100.00
2681;BME280;1350;42.134;24.708;2024-02-23T02:14:15;99274.09;;;5.82;100.00
2681;BME280;1350;42.134;24.708;2024-02-23T02:16:42;99264.72;;;5.75;100.00
2681;BME280;1350;42.134;24.708;2024-02-23T02:19:12;99276.94;;;5.76;100.00
2681;BME280;1350;42.134;24.708;2024-02-23T02:21:39;99267.28;;;5.76;100.00
2681;BME280;1350;42.134;24.708;2024-02-23T02:24:07;99270.69;;;5.55;100.00
2681;BME280;1350;42.134;24.708;2024-02-23T02:26:35;99274.88;;;5.61;100.00
2681;BME280;1350;42.134;24.708;2024-02-23T02:29:02;99271.09;;;5.68;100.00
2681;BME280;1350;42.134;24.708;2024-02-23T02:31:29;99272.88;;;5.67;100.00
2681;BME280;1350;42.134;24.708;2024-02-23T02:34:02;99270.03;;;5.73;100.00
2681;BME280;1350;42.134;24.708;2024-02-23T02:36:31;99272.25;;;5.61;100.00
2681;BME280;1350;42.134;24.708;2024-02-23T02:38:58;99269.44;;;5.65;100.00
2681;BME280;1350;42.134;24.708;2024-02-23T02:41:28;99274.72;;;5.65;100.00
2681;BME280;1350;42.134;24.708;2024-02-23T02:43:56;99276.75;;;5.57;100.00
2681;BME280;1350;42.134;24.708;2024-02-23T02:46:23;99272.31;;;5.59;100.00
2681;BME280;1350;42.134;24.708;2024-02-23T02:48:49;99279.56;;;5.76;100.00
2681;BME280;1350;42.134;24.708;2024-02-23T02:51:16;99281.25;;;5.77;100.00
2681;BME280;1350;42.134;24.708;2024-02-23T02:53:45;99283.13;;;5.75;100.00
2681;BME280;1350;42.134;24.708;2024-02-23T02:56:12;99287.44;;;5.76;100.00
2681;BME280;1350;42.134;24.708;2024-02-23T02:58:39;99291.00;;;5.52;100.00
2681;BME280;1350;42.134;24.708;2024-02-23T03:01:06;99289.84;;;5.36;100.00
2681;BME280;1350;42.134;24.708;2024-02-23T03:03:32;99285.97;;;5.46;100.00
2681;BME280;1350;42.134;24.708;2024-02-23T03:05:59;99286.88;;;5.45;100.00
2681;BME280;1350;42.134;24.708;2024-02-23T03:08:26;99290.28;;;5.23;100.00
2681;BME280;1350;42.134;24.708;2024-02-23T03:10:55;99289.28;;;5.26;100.00
2681;BME280;1350;42.134;24.708;2024-02-23T03:13:23;99292.53;;;5.09;100.00
2681;BME280;1350;42.134;24.708;2024-02-23T03:15:50;99292.25;;;4.92;100.00
2681;BME280;1350;42.134;24.708;2024-02-23T03:18:17;99296.06;;;4.84;100.00
2681;BME280;1350;42.134;24.708;2024-02-23T03:20:44;99299.53;;;5.09;100.00
2681;BME280;1350;42.134;24.708;2024-02-23T03:23:11;99300.84;;;5.22;100.00
2681;BME280;1350;42.134;24.708;2024-02-23T03:25:38;99304.28;;;4.99;100.00
2681;BME280;1350;42.134;24.708;2024-02-23T03:28:06;99305.97;;;5.00;100.00
2681;BME280;1350;42.134;24.708;2024-02-23T03:30:33;99312.09;;;5.01;100.00
2681;BME280;1350;42.134;24.708;2024-02-23T03:33:00;99308.94;;;5.16;100.00
2681;BME280;1350;42.134;24.708;2024-02-23T03:35:27;99294.03;;;5.16;100.00
2681;BME280;1350;42.134;24.708;2024-02-23T03:37:54;99296.72;;;5.15;100.00
2681;BME280;1350;42.134;24.708;2024-02-23T03:40:21;99299.25;;;4.93;100.00
2681;BME280;1350;42.134;24.708;2024-02-23T03:42:48;99289.50;;;4.95;100.00
2681;BME280;1350;42.134;24.708;2024-02-23T03:45:16;99289.94;;;5.08;100.00
2681;BME280;1350;42.134;24.708;2024-02-23T03:47:43;99299.97;;;4.97;100.00
2681;BME280;1350;42.134;24.708;2024-02-23T03:50:10;99304.94;;;4.80;100.00
2681;BME280;1350;42.134;24.708;2024-02-23T03:52:37;99300.34;;;4.86;100.00
2681;BME280;1350;42.134;24.708;2024-02-23T03:55:05;99307.88;;;4.71;100.00
2681;BME280;1350;42.134;24.708;2024-02-23T03:57:32;99298.94;;;4.50;100.00
2681;BME280;1350;42.134;24.708;2024-02-23T03:59:59;99303.28;;;4.51;100.00
2681;BME280;1350;42.134;24.708;2024-02-23T04:02:27;99295.31;;;4.54;100.00
2681;BME280;1350;42.134;24.708;2024-02-23T04:04:54;99307.81;;;4.46;100.00
2681;BME280;1350;42.134;24.708;2024-02-23T04:07:21;99293.25;;;4.38;100.00
2681;BME280;1350;42.134;24.708;2024-02-23T04:09:49;99298.75;;;4.56;100.00
2681;BME280;1350;42.134;24.708;2024-02-23T04:12:18;99305.03;;;4.51;100.00
2681;BME280;1350;42.134;24.708;2024-02-23T04:14:45;99301.38;;;4.56;100.00
2681;BME280;1350;42.134;24.708;2024-02-23T04:17:12;99291.97;;;4.49;100.00
2681;BME280;1350;42.134;24.708;2024-02-23T04:19:41;99295.25;;;4.56;100.00
2681;BME280;1350;42.134;24.708;2024-02-23T04:22:09;99296.19;;;4.55;100.00
2681;BME280;1350;42.134;24.708;2024-02-23T04:24:36;99296.44;;;4.47;100.00
2681;BME280;1350;42.134;24.708;2024-02-23T04:27:04;99306.53;;;4.59;100.00
2681;BME280;1350;42.134;24.708;2024-02-23T04:29:31;99298.84;;;4.53;100.00
2681;BME280;1350;42.134;24.708;2024-02-23T04:31:59;99300.91;;;4.70;100.00
2681;BME280;1350;42.134;24.708;2024-02-23T04:34:27;99307.94;;;4.69;100.00
2681;BME280;1350;42.134;24.708;2024-02-23T04:36:55;99309.56;;;4.73;100.00
2681;BME280;1350;42.134;24.708;2024-02-23T04:39:22;99295.50;;;4.74;100.00
2681;BME280;1350;42.134;24.708;2024-02-23T04:41:49;99294.25;;;4.60;100.00
2681;BME280;1350;42.134;24.708;2024-02-23T04:44:16;99301.69;;;4.73;100.00
2681;BME280;1350;42.134;24.708;2024-02-23T04:46:42;99309.56;;;4.73;100.00
2681;BME280;1350;42.134;24.708;2024-02-23T04:49:10;99308.53;;;4.77;100.00
2681;BME280;1350;42.134;24.708;2024-02-23T04:51:37;99312.56;;;4.61;100.00
2681;BME280;1350;42.134;24.708;2024-02-23T04:54:05;99304.09;;;4.79;100.00
2681;BME280;1350;42.134;24.708;2024-02-23T04:56:33;99300.25;;;4.89;100.00
2681;BME280;1350;42.134;24.708;2024-02-23T04:59:00;99306.28;;;4.67;100.00
2681;BME280;1350;42.134;24.708;2024-02-23T05:01:26;99305.72;;;4.57;100.00
2681;BME280;1350;42.134;24.708;2024-02-23T05:03:54;99305.91;;;4.51;100.00
2681;BME280;1350;42.134;24.708;2024-02-23T05:06:21;99300.16;;;4.40;100.00
2681;BME280;1350;42.134;24.708;2024-02-23T05:08:48;99306.88;;;4.49;100.00
2681;BME280;1350;42.134;24.708;2024-02-23T05:11:16;99310.34;;;4.49;100.00
2681;BME280;1350;42.134;24.708;2024-02-23T05:13:43;99315.59;;;4.49;100.00
2681;BME280;1350;42.134;24.708;2024-02-23T05:16:10;99310.00;;;4.60;100.00
2681;BME280;1350;42.134;24.708;2024-02-23T05:18:38;99307.63;;;4.52;100.00
2681;BME280;1350;42.134;24.708;2024-02-23T05:21:06;99325.66;;;4.35;100.00
2681;BME280;1350;42.134;24.708;2024-02-23T05:23:33;99315.28;;;4.58;100.00
2681;BME280;1350;42.134;24.708;2024-02-23T05:26:00;99326.00;;;4.78;100.00
2681;BME280;1350;42.134;24.708;2024-02-23T05:28:28;99328.41;;;4.84;100.00
2681;BME280;1350;42.134;24.708;2024-02-23T05:30:55;99327.47;;;4.87;100.00
2681;BME280;1350;42.134;24.708;2024-02-23T05:33:22;99326.59;;;4.86;100.00
2681;BME280;1350;42.134;24.708;2024-02-23T05:35:49;99325.09;;;5.05;100.00
2681;BME280;1350;42.134;24.708;2024-02-23T05:38:17;99329.03;;;5.17;100.00
2681;BME280;1350;42.134;24.708;2024-02-23T05:40:44;99321.16;;;6.97;100.00
2681;BME280;1350;42.134;24.708;2024-02-23T05:43:12;99321.22;;;8.69;100.00
2681;BME280;1350;42.134;24.708;2024-02-23T05:45:41;99335.47;;;9.34;94.11
2681;BME280;1350;42.134;24.708;2024-02-23T05:48:08;99331.59;;;9.74;88.84
2681;BME280;1350;42.134;24.708;2024-02-23T05:50:35;99335.06;;;10.40;86.15
2681;BME280;1350;42.134;24.708;2024-02-23T05:53:03;99334.31;;;10.38;84.83
2681;BME280;1350;42.134;24.708;2024-02-23T05:55:30;99343.00;;;10.08;82.56
2681;BME280;1350;42.134;24.708;2024-02-23T05:57:57;99346.19;;;10.31;83.27
2681;BME280;1350;42.134;24.708;2024-02-23T06:00:24;99345.84;;;10.37;82.08
2681;BME280;1350;42.134;24.708;2024-02-23T06:02:52;99343.97;;;10.70;79.83
2681;BME280;1350;42.134;24.708;2024-02-23T06:05:19;99353.00;;;10.97;77.10
2681;BME280;1350;42.134;24.708;2024-02-23T06:07:46;99362.22;;;11.21;74.68
2681;BME280;1350;42.134;24.708;2024-02-23T06:10:13;99366.25;;;11.42;72.61
2681;BME280;1350;42.134;24.708;2024-02-23T06:12:40;99370.53;;;11.74;70.57
2681;BME280;1350;42.134;24.708;2024-02-23T06:15:08;99369.50;;;12.05;67.41
2681;BME280;1350;42.134;24.708;2024-02-23T06:17:35;99372.66;;;12.66;67.73
2681;BME280;1350;42.134;24.708;2024-02-23T06:20:07;99374.09;;;13.12;63.60
2681;BME280;1350;42.134;24.708;2024-02-23T06:22:35;99375.25;;;13.47;61.61
2681;BME280;1350;42.134;24.708;2024-02-23T06:25:02;99384.31;;;13.44;59.72
2681;BME280;1350;42.134;24.708;2024-02-23T06:27:29;99376.25;;;13.19;59.33
2681;BME280;1350;42.134;24.708;2024-02-23T06:29:56;99386.78;;;13.21;58.46
2681;BME280;1350;42.134;24.708;2024-02-23T06:32:23;99379.69;;;13.86;71.20
2681;BME280;1350;42.134;24.708;2024-02-23T06:34:49;99377.16;;;14.34;59.65
2681;BME280;1350;42.134;24.708;2024-02-23T06:37:18;99374.59;;;15.17;61.29
2681;BME280;1350;42.134;24.708;2024-02-23T06:39:45;99382.72;;;15.40;58.94
2681;BME280;1350;42.134;24.708;2024-02-23T06:42:16;99367.19;;;15.45;56.96
2681;BME280;1350;42.134;24.708;2024-02-23T06:44:43;99371.44;;;15.82;55.99
2681;BME280;1350;42.134;24.708;2024-02-23T06:47:10;99369.63;;;15.93;53.87
2681;BME280;1350;42.134;24.708;2024-02-23T06:49:41;99374.16;;;15.93;53.15
2681;BME280;1350;42.134;24.708;2024-02-23T06:52:08;99369.78;;;16.03;53.04
2681;BME280;1350;42.134;24.708;2024-02-23T06:54:36;99367.41;;;16.44;52.73
2681;BME280;1350;42.134;24.708;2024-02-23T06:57:04;99370.19;;;16.75;51.16
2681;BME280;1350;42.134;24.708;2024-02-23T06:59:31;99365.00;;;17.06;50.39
2681;BME280;1350;42.134;24.708;2024-02-23T07:01:58;99369.59;;;17.15;49.71
2681;BME280;1350;42.134;24.708;2024-02-23T07:04:25;99365.47;;;17.22;49.06
2681;BME280;1350;42.134;24.708;2024-02-23T07:06:52;99367.75;;;17.58;48.33
2681;BME280;1350;42.134;24.708;2024-02-23T07:09:19;99369.19;;;17.30;48.30
2681;BME280;1350;42.134;24.708;2024-02-23T07:11:48;99367.25;;;16.90;49.02
2681;BME280;1350;42.134;24.708;2024-02-23T07:14:15;99371.84;;;16.99;48.98
2681;BME280;1350;42.134;24.708;2024-02-23T07:16:42;99376.31;;;17.20;48.23
2681;BME280;1350;42.134;24.708;2024-02-23T07:19:09;99372.88;;;17.81;48.29
2681;BME280;1350;42.134;24.708;2024-02-23T07:21:38;99362.13;;;18.22;47.75
2681;BME280;1350;42.134;24.708;2024-02-23T07:24:05;99357.56;;;18.74;47.60
2681;BME280;1350;42.134;24.708;2024-02-23T07:26:32;99356.41;;;19.16;46.78
2681;BME280;1350;42.134;24.708;2024-02-23T07:29:01;99347.81;;;19.50;46.53
2681;BME280;1350;42.134;24.708;2024-02-23T07:31:28;99354.69;;;20.00;44.87
2681;BME280;1350;42.134;24.708;2024-02-23T07:33:55;99358.13;;;19.83;43.97
2681;BME280;1350;42.134;24.708;2024-02-23T07:36:22;99356.72;;;19.89;44.80
2681;BME280;1350;42.134;24.708;2024-02-23T07:38:49;99350.25;;;20.28;43.54
2681;BME280;1350;42.134;24.708;2024-02-23T07:41:16;99347.31;;;20.58;43.00
2681;BME280;1350;42.134;24.708;2024-02-23T07:43:43;99348.94;;;20.42;42.38
2681;BME280;1350;42.134;24.708;2024-02-23T07:46:12;99348.06;;;20.78;42.51
2681;BME280;1350;42.134;24.708;2024-02-23T07:48:39;99349.78;;;20.42;42.29
2681;BME280;1350;42.134;24.708;2024-02-23T07:51:06;99344.75;;;20.84;42.94
2681;BME280;1350;42.134;24.708;2024-02-23T07:53:34;99337.31;;;20.68;41.30
2681;BME280;1350;42.134;24.708;2024-02-23T07:56:01;99340.16;;;21.03;41.84
2681;BME280;1350;42.134;24.708;2024-02-23T07:58:29;99340.25;;;21.29;41.39
2681;BME280;1350;42.134;24.708;2024-02-23T08:00:56;99339.03;;;21.41;40.67
2681;BME280;1350;42.134;24.708;2024-02-23T08:03:24;99339.47;;;21.71;41.46
2681;BME280;1350;42.134;24.708;2024-02-23T08:05:51;99344.81;;;21.46;41.16
2681;BME280;1350;42.134;24.708;2024-02-23T08:08:18;99342.47;;;20.89;40.70
2681;BME280;1350;42.134;24.708;2024-02-23T08:10:48;99336.16;;;20.44;41.11
2681;BME280;1350;42.134;24.708;2024-02-23T08:13:15;99341.06;;;20.58;41.89
2681;BME280;1350;42.134;24.708;2024-02-23T08:15:43;99337.22;;;20.97;42.61
2681;BME280;1350;42.134;24.708;2024-02-23T08:18:10;99332.84;;;21.48;41.33
2681;BME280;1350;42.134;24.708;2024-02-23T08:20:38;99328.00;;;21.34;41.09
2681;BME280;1350;42.134;24.708;2024-02-23T08:23:05;99327.69;;;21.73;41.13
2681;BME280;1350;42.134;24.708;2024-02-23T08:25:32;99327.63;;;22.08;40.62
2681;BME280;1350;42.134;24.708;2024-02-23T08:27:59;99331.53;;;22.13;40.29
2681;BME280;1350;42.134;24.708;2024-02-23T08:30:26;99331.25;;;20.30;42.20
2681;BME280;1350;42.134;24.708;2024-02-23T08:32:53;99333.59;;;21.23;41.47
2681;BME280;1350;42.134;24.708;2024-02-23T08:35:20;99330.66;;;21.69;41.25
2681;BME280;1350;42.134;24.708;2024-02-23T08:37:48;99335.59;;;22.17;40.54
2681;BME280;1350;42.134;24.708;2024-02-23T08:40:16;99326.75;;;21.46;40.73
2681;BME280;1350;42.134;24.708;2024-02-23T08:42:42;99324.06;;;20.57;41.45
2681;BME280;1350;42.134;24.708;2024-02-23T08:45:10;99316.91;;;19.83;43.33
2681;BME280;1350;42.134;24.708;2024-02-23T08:47:38;99320.59;;;19.15;44.55
2681;BME280;1350;42.134;24.708;2024-02-23T08:50:06;99318.31;;;19.01;44.95
2681;BME280;1350;42.134;24.708;2024-02-23T08:52:33;99316.00;;;20.11;44.43
2681;BME280;1350;42.134;24.708;2024-02-23T08:55:02;99322.22;;;21.47;42.17
2681;BME280;1350;42.134;24.708;2024-02-23T08:57:29;99320.34;;;21.83;40.87
2681;BME280;1350;42.134;24.708;2024-02-23T08:59:56;99322.25;;;21.90;40.47
2681;BME280;1350;42.134;24.708;2024-02-23T09:02:23;99322.66;;;21.78;40.64
2681;BME280;1350;42.134;24.708;2024-02-23T09:04:51;99310.34;;;22.01;40.07
2681;BME280;1350;42.134;24.708;2024-02-23T09:07:18;99314.84;;;22.18;40.32
2681;BME280;1350;42.134;24.708;2024-02-23T09:09:46;99313.16;;;22.17;40.11
2681;BME280;1350;42.134;24.708;2024-02-23T09:12:15;99309.50;;;23.01;38.95
2681;BME280;1350;42.134;24.708;2024-02-23T09:14:42;99295.56;;;22.72;38.97
2681;BME280;1350;42.134;24.708;2024-02-23T09:17:09;99304.66;;;22.37;39.69
2681;BME280;1350;42.134;24.708;2024-02-23T09:19:38;99307.22;;;22.13;39.85
2681;BME280;1350;42.134;24.708;2024-02-23T09:22:05;99300.41;;;20.78;41.65
2681;BME280;1350;42.134;24.708;2024-02-23T09:24:34;99297.44;;;22.12;40.28
2681;BME280;1350;42.134;24.708;2024-02-23T09:27:05;99287.81;;;22.85;39.32
2681;BME280;1350;42.134;24.708;2024-02-23T09:29:34;99293.59;;;22.90;38.91
2681;BME280;1350;42.134;24.708;2024-02-23T09:32:22;99296.94;;;23.34;38.15
2681;BME280;1350;42.134;24.708;2024-02-23T09:34:55;99286.38;;;23.14;37.88
2681;BME280;1350;42.134;24.708;2024-02-23T09:37:24;99278.25;;;22.98;38.19
2681;BME280;1350;42.134;24.708;2024-02-23T09:39:51;99276.00;;;21.67;39.61
2681;BME280;1350;42.134;24.708;2024-02-23T09:42:19;99283.91;;;22.79;38.95
2681;BME280;1350;42.134;24.708;2024-02-23T09:44:57;99263.88;;;21.89;39.55
2681;BME280;1350;42.134;24.708;2024-02-23T09:47:26;99264.25;;;20.71;41.33
2681;BME280;1350;42.134;24.708;2024-02-23T09:49:54;99260.50;;;21.09;40.94
2681;BME280;1350;42.134;24.708;2024-02-23T09:52:25;99260.69;;;19.80;42.88
2681;BME280;1350;42.134;24.708;2024-02-23T09:54:54;99260.19;;;19.19;44.49
2681;BME280;1350;42.134;24.708;2024-02-23T09:57:24;99248.47;;;19.95;43.47
2681;BME280;1350;42.134;24.708;2024-02-23T09:59:53;99245.75;;;20.41;43.13
2681;BME280;1350;42.134;24.708;2024-02-23T10:02:20;99241.78;;;20.63;42.28
2681;BME280;1350;42.134;24.708;2024-02-23T10:04:48;99243.38;;;21.18;41.52
2681;BME280;1350;42.134;24.708;2024-02-23T10:07:16;99245.38;;;21.33;41.38
2681;BME280;1350;42.134;24.708;2024-02-23T10:09:43;99244.66;;;21.49;41.34
2681;BME280;1350;42.134;24.708;2024-02-23T10:12:10;99236.47;;;22.10;41.08
2681;BME280;1350;42.134;24.708;2024-02-23T10:14:37;99234.91;;;22.82;39.38
2681;BME280;1350;42.134;24.708;2024-02-23T10:17:07;99235.38;;;22.70;39.05
2681;BME280;1350;42.134;24.708;2024-02-23T10:19:34;99229.16;;;22.28;38.88
2681;BME280;1350;42.134;24.708;2024-02-23T10:22:01;99232.91;;;20.97;40.78
2681;BME280;1350;42.134;24.708;2024-02-23T10:24:28;99217.81;;;21.04;41.20
2681;BME280;1350;42.134;24.708;2024-02-23T10:26:55;99219.91;;;21.53;40.56
2681;BME280;1350;42.134;24.708;2024-02-23T10:29:23;99211.44;;;21.74;40.29
2681;BME280;1350;42.134;24.708;2024-02-23T10:31:51;99209.72;;;22.24;39.49
2681;BME280;1350;42.134;24.708;2024-02-23T10:34:20;99208.97;;;22.06;40.20
2681;BME280;1350;42.134;24.708;2024-02-23T10:36:47;99215.50;;;22.87;39.60
2681;BME280;1350;42.134;24.708;2024-02-23T10:39:17;99206.41;;;21.53;39.58
2681;BME280;1350;42.134;24.708;2024-02-23T10:41:48;99201.22;;;21.60;39.91
2681;BME280;1350;42.134;24.708;2024-02-23T10:44:18;99197.19;;;21.90;40.05
2681;BME280;1350;42.134;24.708;2024-02-23T10:46:46;99190.22;;;21.10;41.40
2681;BME280;1350;42.134;24.708;2024-02-23T10:49:14;99191.00;;;22.31;39.58
2681;BME280;1350;42.134;24.708;2024-02-23T10:51:44;99197.06;;;22.25;39.66
2681;BME280;1350;42.134;24.708;2024-02-23T10:54:13;99174.28;;;22.35;39.32
2681;BME280;1350;42.134;24.708;2024-02-23T10:56:41;99168.44;;;21.04;40.51
2681;BME280;1350;42.134;24.708;2024-02-23T10:59:08;99174.38;;;21.33;40.80
2681;BME280;1350;42.134;24.708;2024-02-23T11:01:36;99162.84;;;21.23;40.39
2681;BME280;1350;42.134;24.708;2024-02-23T11:04:06;99155.81;;;21.04;40.78
2681;BME280;1350;42.134;24.708;2024-02-23T11:06:34;99167.94;;;20.73;41.84
2681;BME280;1350;42.134;24.708;2024-02-23T11:09:12;99159.25;;;19.53;43.10
2681;BME280;1350;42.134;24.708;2024-02-23T11:11:39;99147.72;;;19.97;42.73
2681;BME280;1350;42.134;24.708;2024-02-23T11:14:07;99141.59;;;20.50;42.57
2681;BME280;1350;42.134;24.708;2024-02-23T11:16:38;99137.63;;;21.06;41.41
2681;BME280;1350;42.134;24.708;2024-02-23T11:19:07;99140.44;;;21.48;41.05
2681;BME280;1350;42.134;24.708;2024-02-23T11:21:36;99145.78;;;20.79;41.47
2681;BME280;1350;42.134;24.708;2024-02-23T11:24:05;99139.53;;;20.44;41.51
2681;BME280;1350;42.134;24.708;2024-02-23T11:26:37;99142.25;;;19.53;43.27
2681;BME280;1350;42.134;24.708;2024-02-23T11:29:10;99139.97;;;20.39;42.41
2681;BME280;1350;42.134;24.708;2024-02-23T11:31:44;99129.84;;;21.03;40.44
2681;BME280;1350;42.134;24.708;2024-02-23T11:34:11;99132.84;;;21.51;39.68
2681;BME280;1350;42.134;24.708;2024-02-23T11:36:38;99138.75;;;19.79;42.08
2681;BME280;1350;42.134;24.708;2024-02-23T11:39:05;99132.53;;;20.33;42.08
2681;BME280;1350;42.134;24.708;2024-02-23T11:41:36;99131.00;;;21.01;40.83
2681;BME280;1350;42.134;24.708;2024-02-23T11:44:03;99126.63;;;21.51;40.56
2681;BME280;1350;42.134;24.708;2024-02-23T11:46:32;99126.47;;;21.52;40.37
2681;BME280;1350;42.134;24.708;2024-02-23T11:48:59;99132.63;;;21.70;40.53
2681;BME280;1350;42.134;24.708;2024-02-23T11:51:26;99119.13;;;20.41;42.10
2681;BME280;1350;42.134;24.708;2024-02-23T11:53:55;99123.56;;;21.46;40.89
2681;BME280;1350;42.134;24.708;2024-02-23T11:56:23;99119.72;;;22.32;39.73
2681;BME280;1350;42.134;24.708;2024-02-23T11:58:53;99109.69;;;22.74;39.44
2681;BME280;1350;42.134;24.708;2024-02-23T12:01:20;99112.66;;;22.47;39.05
2681;BME280;1350;42.134;24.708;2024-02-23T12:03:47;99117.03;;;22.32;39.73
2681;BME280;1350;42.134;24.708;2024-02-23T12:06:14;99116.28;;;22.79;39.23
2681;BME280;1350;42.134;24.708;2024-02-23T12:08:42;99111.16;;;22.44;38.81
2681;BME280;1350;42.134;24.708;2024-02-23T12:11:11;99106.88;;;22.26;38.98
2681;BME280;1350;42.134;24.708;2024-02-23T12:13:39;99097.53;;;22.04;39.60
2681;BME280;1350;42.134;24.708;2024-02-23T12:16:08;99090.75;;;21.92;39.85
2681;BME280;1350;42.134;24.708;2024-02-23T12:18:36;99088.66;;;22.44;39.03
2681;BME280;1350;42.134;24.708;2024-02-23T12:21:05;99087.19;;;23.13;38.28
2681;BME280;1350;42.134;24.708;2024-02-23T12:23:40;99080.75;;;23.39;37.54
2681;BME280;1350;42.134;24.708;2024-02-23T12:26:07;99087.19;;;23.29;37.64
2681;BME280;1350;42.134;24.708;2024-02-23T12:28:34;99084.66;;;21.90;39.34
2681;BME280;1350;42.134;24.708;2024-02-23T12:31:02;99082.44;;;21.86;39.69
2681;BME280;1350;42.134;24.708;2024-02-23T12:33:33;99078.34;;;21.14;39.89
2681;BME280;1350;42.134;24.708;2024-02-23T12:36:02;99064.44;;;20.84;40.52
2681;BME280;1350;42.134;24.708;2024-02-23T12:38:29;99065.75;;;20.54;40.75
2681;BME280;1350;42.134;24.708;2024-02-23T12:40:56;99066.66;;;20.45;40.93
2681;BME280;1350;42.134;24.708;2024-02-23T12:43:23;99061.19;;;19.75;42.33
2681;BME280;1350;42.134;24.708;2024-02-23T12:45:50;99059.81;;;20.51;41.56
2681;BME280;1350;42.134;24.708;2024-02-23T12:48:18;99058.09;;;20.67;41.13
2681;BME280;1350;42.134;24.708;2024-02-23T12:50:47;99046.06;;;20.19;41.67
2681;BME280;1350;42.134;24.708;2024-02-23T12:53:30;99045.56;;;20.41;41.30
2681;BME280;1350;42.134;24.708;2024-02-23T12:55:59;99040.56;;;20.28;41.14
2681;BME280;1350;42.134;24.708;2024-02-23T12:58:26;99038.50;;;19.77;41.91
2681;BME280;1350;42.134;24.708;2024-02-23T13:00:53;99037.53;;;19.96;42.17
2681;BME280;1350;42.134;24.708;2024-02-23T13:03:20;99042.66;;;19.45;42.90
2681;BME280;1350;42.134;24.708;2024-02-23T13:05:49;99034.91;;;20.31;42.19
2681;BME280;1350;42.134;24.708;2024-02-23T13:08:16;99042.22;;;20.82;41.28
2681;BME280;1350;42.134;24.708;2024-02-23T13:10:43;99039.81;;;20.96;40.59
2681;BME280;1350;42.134;24.708;2024-02-23T13:13:10;99041.78;;;20.94;40.85